sensor_id;sensor_type;location;lat;lon;timestamp;pressure;altitude;pressure_sealevel;temperature;humidity
46942;BME280;32676;52.630;4.896;2024-03-23T00:53:30;100245.09;;;7.27;79.19
46942;BME280;32676;52.630;4.896;2024-03-23T00:55:56;100240.72;;;7.27;79.03
46942;BME280;32676;52.630;4.896;2024-03-23T00:58:23;100237.03;;;7.35;78.59
46942;BME280;32676;52.630;4.896;2024-03-23T01:00:50;100243.16;;;7.34;78.14
46942;BME280;32676;52.630;4.896;2024-03-23T01:03:16;100234.50;;;7.32;77.68
46942;BME280;32676;52.630;4.896;2024-03-23T01:05:43;100213.03;;;7.20;77.37
46942;BME280;32676;52.630;4.896;2024-03-23T01:08:08;100134.38;;;6.70;76.79
46942;BME280;32676;52.630;4.896;2024-03-23T01:10:35;100185.56;;;7.07;76.81
46942;BME280;32676;52.630;4.896;2024-03-23T01:13:02;100170.84;;;7.04;76.59
46942;BME280;32676;52.630;4.896;2024-03-23T01:15:30;100199.09;;;7.21;76.34
46942;BME280;32676;52.630;4.896;2024-03-23T01:17:55;100192.13;;;7.20;76.11
46942;BME280;32676;52.630;4.896;2024-03-23T01:20:22;100169.81;;;7.10;75.91
46942;BME280;32676;52.630;4.896;2024-03-23T01:22:48;100120.13;;;6.80;75.88
46942;BME280;32676;52.630;4.896;2024-03-23T01:25:14;100097.69;;;6.73;75.79
46942;BME280;32676;52.630;4.896;2024-03-23T01:27:40;100086.41;;;6.72;75.60
46942;BME280;32676;52.630;4.896;2024-03-23T01:30:07;100046.97;;;6.52;75.43
46942;BME280;32676;52.630;4.896;2024-03-23T01:32:34;100106.19;;;6.81;75.34
46942;BME280;32676;52.630;4.896;2024-03-23T01:35:01;100101.78;;;6.83;75.45
46942;BME280;32676;52.630;4.896;2024-03-23T01:37:26;100111.16;;;6.90;75.21
46942;BME280;32676;52.630;4.896;2024-03-23T01:39:53;100088.91;;;6.77;75.12
46942;BME280;32676;52.630;4.896;2024-03-23T01:42:19;100111.88;;;6.96;75.17
46942;BME280;32676;52.630;4.896;2024-03-23T01:44:46;100109.25;;;6.96;75.06
46942;BME280;32676;52.630;4.896;2024-03-23T01:47:11;100123.22;;;6.95;74.98
46942;BME280;32676;52.630;4.896;2024-03-23T01:49:39;100125.50;;;7.05;74.83
46942;BME280;32676;52.630;4.896;2024-03-23T01:52:06;100128.16;;;7.04;74.68
46942;BME280;32676;52.630;4.896;2024-03-23T01:54:33;100125.56;;;7.04;74.56
46942;BME280;32676;52.630;4.896;2024-03-23T01:57:00;100044.97;;;6.60;74.50
46942;BME280;32676;52.630;4.896;2024-03-23T01:59:27;100074.94;;;6.78;74.59
46942;BME280;32676;52.630;4.896;2024-03-23T02:01:53;100098.03;;;6.92;74.58
46942;BME280;32676;52.630;4.896;2024-03-23T02:04:20;100110.78;;;7.03;74.34
46942;BME280;32676;52.630;4.896;2024-03-23T02:06:47;100070.09;;;6.66;74.33
46942;BME280;32676;52.630;4.896;2024-03-23T02:09:13;100129.88;;;7.05;74.46
46942;BME280;32676;52.630;4.896;2024-03-23T02:11:40;100117.72;;;7.04;74.42
46942;BME280;32676;52.630;4.896;2024-03-23T02:14:07;100077.69;;;6.73;74.36
46942;BME280;32676;52.630;4.896;2024-03-23T02:16:33;100131.69;;;7.03;74.16
46942;BME280;32676;52.630;4.896;2024-03-23T02:18:59;100036.72;;;6.46;74.15
46942;BME280;32676;52.630;4.896;2024-03-23T02:21:26;100093.66;;;6.92;74.31
46942;BME280;32676;52.630;4.896;2024-03-23T02:23:54;100097.91;;;6.97;74.28
46942;BME280;32676;52.630;4.896;2024-03-23T02:26:20;100083.22;;;6.92;74.34
46942;BME280;32676;52.630;4.896;2024-03-23T02:28:46;100081.41;;;6.95;74.21
46942;BME280;32676;52.630;4.896;2024-03-23T02:31:13;100062.59;;;6.83;74.24
46942;BME280;32676;52.630;4.896;2024-03-23T02:33:40;100031.72;;;6.68;74.33
46942;BME280;32676;52.630;4.896;2024-03-23T02:36:07;100060.72;;;6.88;74.35
46942;BME280;32676;52.630;4.896;2024-03-23T02:38:34;100055.50;;;6.88;74.29
46942;BME280;32676;52.630;4.896;2024-03-23T02:41:03;99987.06;;;6.47;74.39
46942;BME280;32676;52.630;4.896;2024-03-23T02:43:29;99906.00;;;5.92;74.18
46942;BME280;32676;52.630;4.896;2024-03-23T02:45:55;100041.19;;;6.72;74.07
46942;BME280;32676;52.630;4.896;2024-03-23T02:48:22;100055.78;;;6.79;73.92
46942;BME280;32676;52.630;4.896;2024-03-23T02:50:48;100075.38;;;6.92;73.73
46942;BME280;32676;52.630;4.896;2024-03-23T02:53:15;100091.81;;;6.96;73.71
46942;BME280;32676;52.630;4.896;2024-03-23T02:55:40;100056.94;;;6.69;73.46
46942;BME280;32676;52.630;4.896;2024-03-23T02:58:08;100044.13;;;6.60;73.21
46942;BME280;32676;52.630;4.896;2024-03-23T03:00:34;100107.47;;;6.98;73.05
46942;BME280;32676;52.630;4.896;2024-03-23T03:03:01;100040.72;;;6.58;73.03
46942;BME280;32676;52.630;4.896;2024-03-23T03:05:28;100086.91;;;6.85;73.08
46942;BME280;32676;52.630;4.896;2024-03-23T03:07:57;100064.03;;;6.64;72.71
46942;BME280;32676;52.630;4.896;2024-03-23T03:10:23;100108.31;;;6.98;73.00
46942;BME280;32676;52.630;4.896;2024-03-23T03:12:49;100037.25;;;6.57;73.04
46942;BME280;32676;52.630;4.896;2024-03-23T03:15:16;100023.53;;;6.50;73.07
46942;BME280;32676;52.630;4.896;2024-03-23T03:17:44;100090.34;;;6.87;73.21
46942;BME280;32676;52.630;4.896;2024-03-23T03:20:10;100025.31;;;6.48;73.42
46942;BME280;32676;52.630;4.896;2024-03-23T03:22:39;100040.44;;;6.67;73.56
46942;BME280;32676;52.630;4.896;2024-03-23T03:25:05;100060.00;;;6.83;73.73
46942;BME280;32676;52.630;4.896;2024-03-23T03:27:32;100069.63;;;6.81;73.92
46942;BME280;32676;52.630;4.896;2024-03-23T03:29:58;100090.16;;;6.94;74.23
46942;BME280;32676;52.630;4.896;2024-03-23T03:32:28;100087.56;;;6.94;74.48
46942;BME280;32676;52.630;4.896;2024-03-23T03:34:54;99988.38;;;6.32;74.62
46942;BME280;32676;52.630;4.896;2024-03-23T03:37:21;100067.75;;;6.86;74.58
46942;BME280;32676;52.630;4.896;2024-03-23T03:39:46;100042.00;;;6.74;74.64
46942;BME280;32676;52.630;4.896;2024-03-23T03:42:13;100057.31;;;6.86;74.48
46942;BME280;32676;52.630;4.896;2024-03-23T03:44:40;100036.75;;;6.74;74.50
46942;BME280;32676;52.630;4.896;2024-03-23T03:47:07;100052.16;;;6.83;74.57
46942;BME280;32676;52.630;4.896;2024-03-23T03:49:34;99992.22;;;6.50;74.46
46942;BME280;32676;52.630;4.896;2024-03-23T03:52:01;100040.19;;;6.76;74.44
46942;BME280;32676;52.630;4.896;2024-03-23T03:54:27;99939.28;;;6.15;74.64
46942;BME280;32676;52.630;4.896;2024-03-23T03:56:54;99940.75;;;6.26;74.61
46942;BME280;32676;52.630;4.896;2024-03-23T03:59:20;99918.69;;;6.06;74.87
46942;BME280;32676;52.630;4.896;2024-03-23T04:01:46;99944.25;;;6.25;75.22
46942;BME280;32676;52.630;4.896;2024-03-23T04:04:12;99978.34;;;6.48;75.36
46942;BME280;32676;52.630;4.896;2024-03-23T04:06:40;99992.00;;;6.57;75.75
46942;BME280;32676;52.630;4.896;2024-03-23T04:09:06;100040.09;;;6.79;75.98
46942;BME280;32676;52.630;4.896;2024-03-23T04:11:32;99964.78;;;6.37;76.08
46942;BME280;32676;52.630;4.896;2024-03-23T04:13:58;100009.47;;;6.54;76.22
46942;BME280;32676;52.630;4.896;2024-03-23T04:16:27;100040.94;;;6.80;76.34
46942;BME280;32676;52.630;4.896;2024-03-23T04:18:53;99944.31;;;6.22;76.55
46942;BME280;32676;52.630;4.896;2024-03-23T04:21:20;99871.59;;;5.80;76.41
46942;BME280;32676;52.630;4.896;2024-03-23T04:23:47;99934.16;;;6.12;76.52
46942;BME280;32676;52.630;4.896;2024-03-23T04:26:15;99894.81;;;5.89;76.28
46942;BME280;32676;52.630;4.896;2024-03-23T04:28:40;100009.31;;;6.61;76.39
46942;BME280;32676;52.630;4.896;2024-03-23T04:31:08;100034.22;;;6.71;76.60
46942;BME280;32676;52.630;4.896;2024-03-23T04:33:33;99957.41;;;6.20;76.41
46942;BME280;32676;52.630;4.896;2024-03-23T04:36:00;100053.06;;;6.82;76.49
46942;BME280;32676;52.630;4.896;2024-03-23T04:38:26;100048.75;;;6.81;76.44
46942;BME280;32676;52.630;4.896;2024-03-23T04:40:58;100045.25;;;6.82;76.51
46942;BME280;32676;52.630;4.896;2024-03-23T04:43:25;100026.50;;;6.68;76.37
46942;BME280;32676;52.630;4.896;2024-03-23T04:45:52;100024.72;;;6.70;76.41
46942;BME280;32676;52.630;4.896;2024-03-23T04:48:20;100026.41;;;6.71;76.38
46942;BME280;32676;52.630;4.896;2024-03-23T04:50:47;99954.59;;;6.28;76.38
46942;BME280;32676;52.630;4.896;2024-03-23T04:53:14;100006.81;;;6.56;76.50
46942;BME280;32676;52.630;4.896;2024-03-23T04:55:41;100009.59;;;6.51;76.20
46942;BME280;32676;52.630;4.896;2024-03-23T04:58:10;100060.91;;;6.82;76.18
46942;BME280;32676;52.630;4.896;2024-03-23T05:00:35;100090.25;;;6.90;76.24
46942;BME280;32676;52.630;4.896;2024-03-23T05:03:02;100098.91;;;6.92;76.21
46942;BME280;32676;52.630;4.896;2024-03-23T05:05:29;100032.09;;;6.56;76.06
46942;BME280;32676;52.630;4.896;2024-03-23T05:07:56;100044.06;;;6.63;76.06
46942;BME280;32676;52.630;4.896;2024-03-23T05:10:21;100107.53;;;6.95;75.99
46942;BME280;32676;52.630;4.896;2024-03-23T05:12:48;100031.31;;;6.52;75.94
46942;BME280;32676;52.630;4.896;2024-03-23T05:15:15;100081.81;;;6.82;75.94
46942;BME280;32676;52.630;4.896;2024-03-23T05:17:42;100101.44;;;6.96;75.90
46942;BME280;32676;52.630;4.896;2024-03-23T05:20:08;100052.69;;;6.65;75.99
46942;BME280;32676;52.630;4.896;2024-03-23T05:22:37;100052.69;;;6.65;75.86
46942;BME280;32676;52.630;4.896;2024-03-23T05:25:03;100076.81;;;6.73;75.76
46942;BME280;32676;52.630;4.896;2024-03-23T05:27:31;100093.13;;;6.81;75.74
46942;BME280;32676;52.630;4.896;2024-03-23T05:29:57;100095.75;;;6.81;75.95
46942;BME280;32676;52.630;4.896;2024-03-23T05:32:25;100099.16;;;6.83;75.71
46942;BME280;32676;52.630;4.896;2024-03-23T05:34:51;100105.34;;;6.81;75.92
46942;BME280;32676;52.630;4.896;2024-03-23T05:37:22;100139.50;;;7.04;76.16
46942;BME280;32676;52.630;4.896;2024-03-23T05:39:47;100153.41;;;7.05;76.18
46942;BME280;32676;52.630;4.896;2024-03-23T05:42:15;100116.44;;;6.87;76.35
46942;BME280;32676;52.630;4.896;2024-03-23T05:44:43;100136.91;;;7.03;76.20
46942;BME280;32676;52.630;4.896;2024-03-23T05:47:09;100131.78;;;7.00;75.91
46942;BME280;32676;52.630;4.896;2024-03-23T05:49:37;100115.59;;;6.87;75.87
46942;BME280;32676;52.630;4.896;2024-03-23T05:52:04;100147.38;;;7.03;75.89
46942;BME280;32676;52.630;4.896;2024-03-23T05:54:29;100102.84;;;6.76;75.76
46942;BME280;32676;52.630;4.896;2024-03-23T05:56:56;100126.81;;;6.90;75.87
46942;BME280;32676;52.630;4.896;2024-03-23T05:59:21;100112.19;;;6.85;76.16
46942;BME280;32676;52.630;4.896;2024-03-23T06:01:49;100118.09;;;6.91;76.21
46942;BME280;32676;52.630;4.896;2024-03-23T06:04:14;100132.81;;;6.94;76.25
46942;BME280;32676;52.630;4.896;2024-03-23T06:06:42;100149.16;;;7.01;76.42
46942;BME280;32676;52.630;4.896;2024-03-23T06:09:08;100060.97;;;6.49;76.53
46942;BME280;32676;52.630;4.896;2024-03-23T06:11:35;100153.41;;;7.05;76.55
46942;BME280;32676;52.630;4.896;2024-03-23T06:14:00;100162.06;;;7.05;76.73
46942;BME280;32676;52.630;4.896;2024-03-23T06:16:27;100107.22;;;6.76;76.49
46942;BME280;32676;52.630;4.896;2024-03-23T06:18:54;100155.06;;;7.07;76.19
46942;BME280;32676;52.630;4.896;2024-03-23T06:21:21;100118.16;;;6.88;75.93
46942;BME280;32676;52.630;4.896;2024-03-23T06:23:52;100133.50;;;7.01;76.00
46942;BME280;32676;52.630;4.896;2024-03-23T06:26:19;100100.78;;;6.87;76.35
46942;BME280;32676;52.630;4.896;2024-03-23T06:28:44;100074.28;;;6.71;76.84
46942;BME280;32676;52.630;4.896;2024-03-23T06:31:12;100088.75;;;6.82;77.40
46942;BME280;32676;52.630;4.896;2024-03-23T06:33:38;100001.38;;;6.34;77.64
46942;BME280;32676;52.630;4.896;2024-03-23T06:36:06;100090.59;;;6.78;78.04
46942;BME280;32676;52.630;4.896;2024-03-23T06:38:31;100081.97;;;6.76;78.27
46942;BME280;32676;52.630;4.896;2024-03-23T06:41:02;100105.00;;;6.93;78.43
46942;BME280;32676;52.630;4.896;2024-03-23T06:43:28;99956.63;;;6.17;78.44
46942;BME280;32676;52.630;4.896;2024-03-23T06:45:55;99959.44;;;6.40;78.45
46942;BME280;32676;52.630;4.896;2024-03-23T06:48:21;100002.22;;;6.66;78.12
46942;BME280;32676;52.630;4.896;2024-03-23T06:50:49;99951.53;;;6.43;77.90
46942;BME280;32676;52.630;4.896;2024-03-23T06:53:15;99901.69;;;6.23;77.74
46942;BME280;32676;52.630;4.896;2024-03-23T06:55:50;99921.13;;;6.42;77.55
46942;BME280;32676;52.630;4.896;2024-03-23T06:58:18;99946.94;;;6.51;77.74
46942;BME280;32676;52.630;4.896;2024-03-23T07:00:45;99917.44;;;6.49;77.66
46942;BME280;32676;52.630;4.896;2024-03-23T07:03:11;99819.50;;;5.78;77.77
46942;BME280;32676;52.630;4.896;2024-03-23T07:05:39;99896.25;;;6.30;78.08
46942;BME280;32676;52.630;4.896;2024-03-23T07:08:06;99897.06;;;6.32;78.22
46942;BME280;32676;52.630;4.896;2024-03-23T07:10:33;99907.97;;;6.45;77.39
46942;BME280;32676;52.630;4.896;2024-03-23T07:13:00;99787.66;;;5.68;77.21
46942;BME280;32676;52.630;4.896;2024-03-23T07:15:28;99877.47;;;6.19;76.99
46942;BME280;32676;52.630;4.896;2024-03-23T07:17:53;99808.44;;;5.71;76.99
46942;BME280;32676;52.630;4.896;2024-03-23T07:20:20;99918.19;;;6.23;77.11
46942;BME280;32676;52.630;4.896;2024-03-23T07:22:46;99941.91;;;6.15;77.37
46942;BME280;32676;52.630;4.896;2024-03-23T07:25:14;100030.50;;;6.50;77.72
46942;BME280;32676;52.630;4.896;2024-03-23T07:27:40;100149.31;;;6.95;78.08
46942;BME280;32676;52.630;4.896;2024-03-23T07:30:07;100188.19;;;7.05;78.34
46942;BME280;32676;52.630;4.896;2024-03-23T07:32:35;100179.22;;;6.84;78.22
46942;BME280;32676;52.630;4.896;2024-03-23T07:35:03;100242.72;;;7.18;77.70
46942;BME280;32676;52.630;4.896;2024-03-23T07:37:30;100266.28;;;7.16;77.03
46942;BME280;32676;52.630;4.896;2024-03-23T07:39:57;100344.66;;;7.49;76.54
46942;BME280;32676;52.630;4.896;2024-03-23T07:42:23;100286.38;;;7.14;75.83
46942;BME280;32676;52.630;4.896;2024-03-23T07:44:52;100337.88;;;7.42;75.40
46942;BME280;32676;52.630;4.896;2024-03-23T07:47:20;100340.44;;;7.45;75.46
46942;BME280;32676;52.630;4.896;2024-03-23T07:49:48;100318.22;;;7.28;74.96
46942;BME280;32676;52.630;4.896;2024-03-23T07:52:14;100333.72;;;7.35;74.57
46942;BME280;32676;52.630;4.896;2024-03-23T07:54:43;100318.44;;;7.21;74.12
46942;BME280;32676;52.630;4.896;2024-03-23T07:57:08;100414.75;;;7.67;74.03
46942;BME280;32676;52.630;4.896;2024-03-23T07:59:35;100432.97;;;7.71;73.66
46942;BME280;32676;52.630;4.896;2024-03-23T08:02:01;100438.41;;;7.64;73.46
46942;BME280;32676;52.630;4.896;2024-03-23T08:04:27;100486.66;;;7.84;73.47
46942;BME280;32676;52.630;4.896;2024-03-23T08:06:55;100419.38;;;7.25;73.41
46942;BME280;32676;52.630;4.896;2024-03-23T08:09:22;100450.19;;;7.46;73.46
46942;BME280;32676;52.630;4.896;2024-03-23T08:11:48;100523.72;;;7.68;73.40
46942;BME280;32676;52.630;4.896;2024-03-23T08:14:16;100568.69;;;7.83;73.42
46942;BME280;32676;52.630;4.896;2024-03-23T08:16:41;100632.25;;;8.21;72.96
46942;BME280;32676;52.630;4.896;2024-03-23T08:19:13;100656.56;;;8.26;72.33
46942;BME280;32676;52.630;4.896;2024-03-23T08:21:39;100643.09;;;8.05;72.03
46942;BME280;32676;52.630;4.896;2024-03-23T08:24:07;100661.34;;;8.08;71.66
46942;BME280;32676;52.630;4.896;2024-03-23T08:26:33;100702.13;;;8.19;71.63
46942;BME280;32676;52.630;4.896;2024-03-23T08:29:00;100767.66;;;8.52;71.33
46942;BME280;32676;52.630;4.896;2024-03-23T08:31:25;100752.25;;;8.38;71.05
46942;BME280;32676;52.630;4.896;2024-03-23T08:33:52;100767.63;;;8.53;71.05
46942;BME280;32676;52.630;4.896;2024-03-23T08:36:18;100760.69;;;8.51;71.06
46942;BME280;32676;52.630;4.896;2024-03-23T08:38:46;100764.50;;;8.37;71.09
46942;BME280;32676;52.630;4.896;2024-03-23T08:41:13;100795.72;;;8.47;71.68
46942;BME280;32676;52.630;4.896;2024-03-23T08:43:40;100838.03;;;8.65;72.01
46942;BME280;32676;52.630;4.896;2024-03-23T08:46:07;100782.88;;;8.34;71.18
46942;BME280;32676;52.630;4.896;2024-03-23T08:48:35;100808.59;;;8.56;70.36
46942;BME280;32676;52.630;4.896;2024-03-23T08:51:02;100735.91;;;8.28;69.79
46942;BME280;32676;52.630;4.896;2024-03-23T08:53:29;100776.38;;;8.52;69.29
46942;BME280;32676;52.630;4.896;2024-03-23T08:55:55;100668.38;;;7.71;68.76
46942;BME280;32676;52.630;4.896;2024-03-23T08:58:25;100810.16;;;8.63;68.63
46942;BME280;32676;52.630;4.896;2024-03-23T09:00:51;100699.19;;;7.95;69.12
46942;BME280;32676;52.630;4.896;2024-03-23T09:03:17;100781.72;;;8.48;69.57
46942;BME280;32676;52.630;4.896;2024-03-23T09:05:43;100728.34;;;8.16;69.90
46942;BME280;32676;52.630;4.896;2024-03-23T09:08:10;100691.47;;;7.89;70.25
46942;BME280;32676;52.630;4.896;2024-03-23T09:10:38;100743.84;;;8.25;70.25
46942;BME280;32676;52.630;4.896;2024-03-23T09:13:05;100747.22;;;8.30;70.79
46942;BME280;32676;52.630;4.896;2024-03-23T09:15:32;100753.88;;;8.43;70.88
46942;BME280;32676;52.630;4.896;2024-03-23T09:17:59;100622.22;;;7.68;70.84
46942;BME280;32676;52.630;4.896;2024-03-23T09:20:24;100705.38;;;8.27;70.56
46942;BME280;32676;52.630;4.896;2024-03-23T09:22:51;100656.28;;;8.02;70.34
46942;BME280;32676;52.630;4.896;2024-03-23T09:25:17;100743.69;;;8.31;70.23
46942;BME280;32676;52.630;4.896;2024-03-23T09:27:46;100838.81;;;8.69;70.42
46942;BME280;32676;52.630;4.896;2024-03-23T09:30:13;100870.91;;;8.79;70.46
46942;BME280;32676;52.630;4.896;2024-03-23T09:32:43;100825.28;;;8.52;70.48
46942;BME280;32676;52.630;4.896;2024-03-23T09:35:08;100853.75;;;8.65;70.18
46942;BME280;32676;52.630;4.896;2024-03-23T09:37:35;100840.78;;;8.61;70.32
46942;BME280;32676;52.630;4.896;2024-03-23T09:40:01;100799.41;;;8.36;70.45
46942;BME280;32676;52.630;4.896;2024-03-23T09:42:28;100849.44;;;8.63;70.93
46942;BME280;32676;52.630;4.896;2024-03-23T09:44:54;100859.63;;;8.75;70.69
46942;BME280;32676;52.630;4.896;2024-03-23T09:47:24;100835.44;;;8.64;70.30
46942;BME280;32676;52.630;4.896;2024-03-23T09:49:51;100836.41;;;8.60;70.16
46942;BME280;32676;52.630;4.896;2024-03-23T09:52:18;100871.97;;;8.70;70.41
46942;BME280;32676;52.630;4.896;2024-03-23T09:54:44;100920.50;;;8.87;70.08
46942;BME280;32676;52.630;4.896;2024-03-23T09:57:11;100975.13;;;9.03;69.76
46942;BME280;32676;52.630;4.896;2024-03-23T09:59:37;100958.78;;;8.94;69.45
46942;BME280;32676;52.630;4.896;2024-03-23T10:02:06;100895.56;;;8.70;68.84
46942;BME280;32676;52.630;4.896;2024-03-23T10:04:39;100892.72;;;8.79;68.89
46942;BME280;32676;52.630;4.896;2024-03-23T10:07:13;100852.53;;;8.43;69.08
46942;BME280;32676;52.630;4.896;2024-03-23T10:09:41;100978.75;;;8.98;69.63
46942;BME280;32676;52.630;4.896;2024-03-23T10:12:08;101017.75;;;9.13;69.32
46942;BME280;32676;52.630;4.896;2024-03-23T10:14:35;101064.72;;;9.22;68.94
46942;BME280;32676;52.630;4.896;2024-03-23T10:17:18;101066.84;;;9.05;68.37
46942;BME280;32676;52.630;4.896;2024-03-23T10:19:45;101123.91;;;9.33;67.74
46942;BME280;32676;52.630;4.896;2024-03-23T10:22:17;101075.72;;;8.99;67.18
46942;BME280;32676;52.630;4.896;2024-03-23T10:24:44;100984.84;;;8.61;67.02
46942;BME280;32676;52.630;4.896;2024-03-23T10:27:15;101075.19;;;9.22;66.60
46942;BME280;32676;52.630;4.896;2024-03-23T10:29:41;101073.31;;;9.28;66.58
46942;BME280;32676;52.630;4.896;2024-03-23T10:32:08;101019.44;;;8.77;66.61
46942;BME280;32676;52.630;4.896;2024-03-23T10:34:36;101102.84;;;9.36;67.51
46942;BME280;32676;52.630;4.896;2024-03-23T10:37:02;101061.31;;;9.17;67.56
46942;BME280;32676;52.630;4.896;2024-03-23T10:39:32;101006.06;;;8.88;67.10
46942;BME280;32676;52.630;4.896;2024-03-23T10:42:01;101026.97;;;8.91;66.85
46942;BME280;32676;52.630;4.896;2024-03-23T10:44:29;101047.59;;;9.06;66.66
46942;BME280;32676;52.630;4.896;2024-03-23T10:46:56;101096.88;;;9.29;66.36
46942;BME280;32676;52.630;4.896;2024-03-23T10:49:25;101132.44;;;9.43;66.32
46942;BME280;32676;52.630;4.896;2024-03-23T10:51:52;101156.75;;;9.49;66.37
46942;BME280;32676;52.630;4.896;2024-03-23T10:54:19;101181.13;;;9.54;66.48
46942;BME280;32676;52.630;4.896;2024-03-23T10:56:49;101170.03;;;9.41;66.66
46942;BME280;32676;52.630;4.896;2024-03-23T10:59:18;101200.25;;;9.59;66.61
46942;BME280;32676;52.630;4.896;2024-03-23T11:01:56;101224.75;;;9.58;66.57
46942;BME280;32676;52.630;4.896;2024-03-23T11:04:30;101259.56;;;9.67;66.50
46942;BME280;32676;52.630;4.896;2024-03-23T11:06:56;101234.41;;;9.58;66.28
46942;BME280;32676;52.630;4.896;2024-03-23T11:09:38;101181.34;;;9.45;65.56
46942;BME280;32676;52.630;4.896;2024-03-23T11:12:17;101142.22;;;9.34;65.36
46942;BME280;32676;52.630;4.896;2024-03-23T11:14:52;101134.13;;;9.45;65.44
46942;BME280;32676;52.630;4.896;2024-03-23T11:17:19;101089.78;;;9.34;65.55
46942;BME280;32676;52.630;4.896;2024-03-23T11:19:53;100945.53;;;8.98;66.18
46942;BME280;32676;52.630;4.896;2024-03-23T11:22:43;100873.50;;;8.80;67.21
46942;BME280;32676;52.630;4.896;2024-03-23T11:25:14;100817.22;;;8.59;68.49
46942;BME280;32676;52.630;4.896;2024-03-23T11:27:41;100779.72;;;8.59;69.89
46942;BME280;32676;52.630;4.896;2024-03-23T11:30:12;100738.38;;;8.34;70.39
46942;BME280;32676;52.630;4.896;2024-03-23T11:32:39;100778.16;;;8.52;71.00
46942;BME280;32676;52.630;4.896;2024-03-23T11:35:06;100788.94;;;8.36;71.19
46942;BME280;32676;52.630;4.896;2024-03-23T11:37:32;100881.66;;;8.67;71.13
46942;BME280;32676;52.630;4.896;2024-03-23T11:39:58;100928.38;;;8.87;70.52
46942;BME280;32676;52.630;4.896;2024-03-23T11:42:25;101014.19;;;9.14;69.85
46942;BME280;32676;52.630;4.896;2024-03-23T11:44:53;101089.19;;;9.21;69.33
46942;BME280;32676;52.630;4.896;2024-03-23T11:47:19;101196.81;;;9.57;69.24
46942;BME280;32676;52.630;4.896;2024-03-23T11:49:48;101188.09;;;9.57;68.90
46942;BME280;32676;52.630;4.896;2024-03-23T11:52:15;101129.03;;;9.39;68.62
46942;BME280;32676;52.630;4.896;2024-03-23T11:54:43;101120.34;;;9.37;68.38
46942;BME280;32676;52.630;4.896;2024-03-23T11:57:09;101137.78;;;9.38;67.86
46942;BME280;32676;52.630;4.896;2024-03-23T11:59:39;101156.84;;;9.46;68.04
46942;BME280;32676;52.630;4.896;2024-03-23T12:02:09;101138.03;;;9.26;68.12
46942;BME280;32676;52.630;4.896;2024-03-23T12:04:36;101122.81;;;9.43;68.23
46942;BME280;32676;52.630;4.896;2024-03-23T12:07:12;101116.72;;;9.41;68.01
46942;BME280;32676;52.630;4.896;2024-03-23T12:09:39;101147.25;;;9.44;67.93
46942;BME280;32676;52.630;4.896;2024-03-23T12:12:07;101158.75;;;9.38;67.81
46942;BME280;32676;52.630;4.896;2024-03-23T12:14:34;101197.81;;;9.52;67.95
46942;BME280;32676;52.630;4.896;2024-03-23T12:17:09;101217.66;;;9.64;68.06
46942;BME280;32676;52.630;4.896;2024-03-23T12:19:36;101201.22;;;9.55;67.83
46942;BME280;32676;52.630;4.896;2024-03-23T12:22:03;101200.31;;;9.56;66.98
46942;BME280;32676;52.630;4.896;2024-03-23T12:24:29;101134.75;;;9.17;66.76
46942;BME280;32676;52.630;4.896;2024-03-23T12:26:55;101168.94;;;9.53;66.01
46942;BME280;32676;52.630;4.896;2024-03-23T12:29:27;101109.75;;;9.40;65.32
46942;BME280;32676;52.630;4.896;2024-03-23T12:31:52;101037.72;;;9.17;65.59
46942;BME280;32676;52.630;4.896;2024-03-23T12:34:20;100995.19;;;9.06;65.40
46942;BME280;32676;52.630;4.896;2024-03-23T12:36:46;100882.81;;;8.55;65.56
46942;BME280;32676;52.630;4.896;2024-03-23T12:39:13;100917.66;;;8.96;66.47
46942;BME280;32676;52.630;4.896;2024-03-23T12:41:38;100837.09;;;8.68;66.99
46942;BME280;32676;52.630;4.896;2024-03-23T12:44:05;100825.66;;;8.72;68.00
46942;BME280;32676;52.630;4.896;2024-03-23T12:46:30;100735.75;;;8.34;69.01
46942;BME280;32676;52.630;4.896;2024-03-23T12:48:57;100703.81;;;8.20;69.93
46942;BME280;32676;52.630;4.896;2024-03-23T12:51:24;100699.59;;;8.14;70.33
46942;BME280;32676;52.630;4.896;2024-03-23T12:53:51;100818.75;;;8.70;70.34
46942;BME280;32676;52.630;4.896;2024-03-23T12:56:17;100878.72;;;8.80;70.52
46942;BME280;32676;52.630;4.896;2024-03-23T12:58:44;101001.91;;;9.16;71.29
46942;BME280;32676;52.630;4.896;2024-03-23T13:01:09;101002.72;;;8.82;71.65
46942;BME280;32676;52.630;4.896;2024-03-23T13:03:36;101109.91;;;9.34;70.98
46942;BME280;32676;52.630;4.896;2024-03-23T13:06:03;101028.16;;;8.76;69.85
46942;BME280;32676;52.630;4.896;2024-03-23T13:08:34;101118.59;;;9.36;68.60
46942;BME280;32676;52.630;4.896;2024-03-23T13:11:01;101095.88;;;9.35;66.99
46942;BME280;32676;52.630;4.896;2024-03-23T13:13:27;101075.09;;;9.26;65.95
46942;BME280;32676;52.630;4.896;2024-03-23T13:15:54;101130.59;;;9.46;65.79
46942;BME280;32676;52.630;4.896;2024-03-23T13:18:20;101072.88;;;9.09;65.74
46942;BME280;32676;52.630;4.896;2024-03-23T13:20:46;101142.81;;;9.47;65.53
46942;BME280;32676;52.630;4.896;2024-03-23T13:23:12;101046.34;;;8.83;65.16
46942;BME280;32676;52.630;4.896;2024-03-23T13:25:41;101169.19;;;9.41;65.32
46942;BME280;32676;52.630;4.896;2024-03-23T13:28:06;101209.63;;;9.31;65.10
46942;BME280;32676;52.630;4.896;2024-03-23T13:30:34;101352.44;;;10.02;64.97
46942;BME280;32676;52.630;4.896;2024-03-23T13:33:00;101319.00;;;9.68;64.93
46942;BME280;32676;52.630;4.896;2024-03-23T13:35:27;101403.88;;;10.12;64.01
46942;BME280;32676;52.630;4.896;2024-03-23T13:37:52;101426.53;;;10.16;63.60
46942;BME280;32676;52.630;4.896;2024-03-23T13:40:19;101364.28;;;9.79;63.04
46942;BME280;32676;52.630;4.896;2024-03-23T13:42:46;101407.38;;;10.11;62.75
46942;BME280;32676;52.630;4.896;2024-03-23T13:45:14;101370.81;;;10.02;62.42
46942;BME280;32676;52.630;4.896;2024-03-23T13:47:39;101315.22;;;9.83;61.81
46942;BME280;32676;52.630;4.896;2024-03-23T13:50:07;101276.72;;;9.83;61.62
46942;BME280;32676;52.630;4.896;2024-03-23T13:52:34;101218.66;;;9.58;61.86